createdAt,value
2022-08-19T00:02:39.590Z,25.55
2022-08-19T00:05:52.714Z,25.54
2022-08-19T00:08:55.232Z,25.45
2022-08-19T00:11:58.759Z,25.38
2022-08-19T00:15:00.808Z,25.34
2022-08-19T00:18:03.230Z,25.40
2022-08-19T00:21:09.632Z,25.40
2022-08-19T00:24:14.765Z,25.39
2022-08-19T00:27:25.619Z,25.32
2022-08-19T00:30:29.292Z,25.48
2022-08-19T00:33:35.410Z,25.47
2022-08-19T00:36:38.490Z,25.36
2022-08-19T00:39:40.703Z,25.28
2022-08-19T00:42:44.063Z,25.37
2022-08-19T00:45:46.198Z,25.26
2022-08-19T00:48:48.721Z,25.61
2022-08-19T00:51:54.787Z,25.58
2022-08-19T00:54:59.192Z,25.46
2022-08-19T00:58:09.006Z,25.63
2022-08-19T01:01:11.870Z,25.64
2022-08-19T01:04:14.591Z,25.74
2022-08-19T01:07:19.736Z,25.53
2022-08-19T01:10:26.186Z,25.37
2022-08-19T01:13:44.509Z,25.38
2022-08-19T01:16:55.419Z,25.37
2022-08-19T01:19:57.875Z,25.37
2022-08-19T01:23:00.198Z,25.18
2022-08-19T01:26:02.620Z,25.33
2022-08-19T01:29:05.235Z,25.37
2022-08-19T01:32:33.226Z,25.47
2022-08-19T01:35:36.780Z,25.23
2022-08-19T01:38:44.122Z,25.12
2022-08-19T01:41:47.973Z,25.32
2022-08-19T01:44:50.859Z,25.44
2022-08-19T01:48:01.277Z,25.27
2022-08-19T01:51:05.660Z,25.07
2022-08-19T01:54:09.817Z,24.99
2022-08-19T01:57:15.326Z,25.21
2022-08-19T02:00:20.065Z,25.51
2022-08-19T02:03:23.699Z,25.56
2022-08-19T02:06:26.993Z,25.45
2022-08-19T02:09:29.565Z,25.42
2022-08-19T02:12:31.724Z,25.17
2022-08-19T02:15:34.187Z,25.47
2022-08-19T02:18:36.487Z,25.48
2022-08-19T02:21:39.089Z,25.40
2022-08-19T02:24:41.448Z,25.15
2022-08-19T02:27:44.487Z,25.13
2022-08-19T02:30:48.149Z,25.21
2022-08-19T02:33:51.425Z,24.96
2022-08-19T02:36:53.569Z,24.85
2022-08-19T02:39:56.380Z,24.96
2022-08-19T02:42:58.507Z,24.82
2022-08-19T02:46:01.289Z,24.73
2022-08-19T02:49:07.274Z,24.90
2022-08-19T02:52:09.905Z,24.88
2022-08-19T02:55:12.072Z,24.87
2022-08-19T02:58:16.494Z,24.72
2022-08-19T03:01:43.009Z,24.62
2022-08-19T03:04:45.751Z,24.57
2022-08-19T03:07:47.891Z,24.62
2022-08-19T03:10:50.287Z,24.39
2022-08-19T03:13:54.393Z,24.41
2022-08-19T03:16:56.794Z,24.30
2022-08-19T03:19:58.940Z,24.21
2022-08-19T03:23:01.362Z,24.30
2022-08-19T03:26:15.884Z,24.16
2022-08-19T03:29:30.799Z,24.21
2022-08-19T03:32:33.848Z,24.28
2022-08-19T03:35:40.030Z,24.20
2022-08-19T03:38:56.412Z,24.33
2022-08-19T03:42:45.452Z,24.28
2022-08-19T03:45:25.481Z,24.18
2022-08-19T03:48:27.954Z,24.33
2022-08-19T03:51:32.923Z,24.26
2022-08-19T03:54:36.167Z,24.24
2022-08-19T03:57:38.300Z,24.32
2022-08-19T04:00:43.844Z,24.13
2022-08-19T04:03:47.467Z,24.34
2022-08-19T04:06:50.183Z,24.49
2022-08-19T04:09:52.978Z,24.60
2022-08-19T04:12:55.166Z,24.54
2022-08-19T04:15:57.720Z,24.52
2022-08-19T04:19:01.807Z,24.48
2022-08-19T04:22:05.065Z,24.41
2022-08-19T04:25:07.438Z,24.46
2022-08-19T04:28:12.179Z,24.67
2022-08-19T04:31:20.460Z,24.94
2022-08-19T04:34:27.657Z,25.14
2022-08-19T04:37:35.058Z,25.07
2022-08-19T04:41:02.059Z,25.40
2022-08-19T04:44:04.664Z,25.53
2022-08-19T04:47:11.347Z,25.52
2022-08-19T04:50:13.662Z,25.44
2022-08-19T04:53:16.278Z,25.58
2022-08-19T04:56:22.686Z,25.87
2022-08-19T04:59:25.045Z,25.73
2022-08-19T05:02:27.162Z,26.01
2022-08-19T05:05:29.579Z,25.95
2022-08-19T05:08:47.858Z,26.06
2022-08-19T05:11:53.826Z,26.20
2022-08-19T05:14:57.743Z,26.51
2022-08-19T05:18:18.625Z,26.69
2022-08-19T05:21:42.818Z,26.93
2022-08-19T05:25:09.388Z,27.18
2022-08-19T05:28:07.505Z,27.39
2022-08-19T05:31:09.945Z,27.63
2022-08-19T05:34:20.282Z,27.88
2022-08-19T05:37:23.184Z,27.99
2022-08-19T05:40:25.300Z,27.98
2022-08-19T05:43:29.257Z,28.76
2022-08-19T05:46:31.402Z,29.83
2022-08-19T05:49:37.069Z,30.43
2022-08-19T05:52:54.256Z,31.54
2022-08-19T05:55:56.682Z,32.35
2022-08-19T05:59:02.084Z,34.21
2022-08-19T06:02:07.543Z,35.90
2022-08-19T06:05:10.709Z,35.90
2022-08-19T06:08:12.880Z,36.81
2022-08-19T06:11:35.826Z,36.35
2022-08-19T06:14:41.693Z,37.60
2022-08-19T06:17:47.756Z,37.66
2022-08-19T06:20:58.445Z,38.16
2022-08-19T06:24:01.279Z,37.22
2022-08-19T06:27:06.609Z,37.01
2022-08-19T06:30:09.611Z,37.65
2022-08-19T06:33:11.621Z,36.22
2022-08-19T06:36:32.327Z,34.98
2022-08-19T06:39:37.572Z,35.62
2022-08-19T06:42:40.288Z,37.76
2022-08-19T06:45:53.321Z,39.80
2022-08-19T06:48:56.495Z,38.42
2022-08-19T06:51:59.515Z,39.36
2022-08-19T06:55:06.550Z,40.29
2022-08-19T06:58:10.193Z,39.82
2022-08-19T07:01:12.708Z,39.76
2022-08-19T07:04:18.980Z,39.26
2022-08-19T07:07:23.200Z,39.65
2022-08-19T07:10:26.214Z,39.88
2022-08-19T07:13:28.636Z,39.04
2022-08-19T07:16:31.106Z,38.39
2022-08-19T07:19:35.163Z,38.74
2022-08-19T07:22:41.541Z,39.35
2022-08-19T07:25:44.572Z,40.43
2022-08-19T07:28:51.524Z,38.67
2022-08-19T07:31:57.387Z,37.51
2022-08-19T07:35:20.996Z,37.01
2022-08-19T07:38:28.111Z,36.27
2022-08-19T07:41:31.695Z,35.74
2022-08-19T07:44:35.557Z,35.26
2022-08-19T07:47:49.020Z,34.96
2022-08-19T07:50:58.961Z,34.76
2022-08-19T07:54:01.621Z,34.27
2022-08-19T07:57:04.988Z,33.78
2022-08-19T08:00:08.208Z,33.49
2022-08-19T08:03:16.633Z,33.19
2022-08-19T08:06:38.153Z,33.28
2022-08-19T08:09:42.916Z,33.56
2022-08-19T08:13:09.342Z,33.38
2022-08-19T08:16:14.996Z,33.00
2022-08-19T08:19:25.610Z,33.09
2022-08-19T08:22:46.742Z,32.80
2022-08-19T08:25:49.941Z,32.40
2022-08-19T08:28:53.290Z,32.36
2022-08-19T08:31:59.630Z,32.78
2022-08-19T08:35:02.424Z,33.13
2022-08-19T08:38:05.272Z,33.52
2022-08-19T08:41:20.203Z,33.16
2022-08-19T08:44:38.123Z,32.92
2022-08-19T08:47:42.483Z,32.93
2022-08-19T08:50:48.545Z,32.95
2022-08-19T08:53:55.960Z,32.89
2022-08-19T08:56:59.412Z,32.55
2022-08-19T09:00:07.213Z,32.72
2022-08-19T09:03:31.481Z,32.93
2022-08-19T09:06:37.793Z,32.90
2022-08-19T09:09:49.522Z,32.60
2022-08-19T09:13:10.375Z,32.80
2022-08-19T09:16:21.767Z,32.98
2022-08-19T09:19:31.478Z,33.29
2022-08-19T09:22:37.200Z,33.58
2022-08-19T09:25:41.097Z,34.25
2022-08-19T09:28:48.799Z,34.00
2022-08-19T09:31:51.152Z,34.43
2022-08-19T09:34:55.646Z,34.12
2022-08-19T09:38:00.609Z,33.75
2022-08-19T09:41:05.685Z,33.55
2022-08-19T09:44:09.269Z,33.68
2022-08-19T09:47:14.712Z,34.27
2022-08-19T09:50:17.815Z,34.61
2022-08-19T09:53:23.445Z,35.02
2022-08-19T09:56:28.921Z,36.03
2022-08-19T09:59:31.367Z,36.68
2022-08-19T10:02:36.355Z,37.70
2022-08-19T10:05:54.475Z,37.61
2022-08-19T10:08:57.235Z,36.09
2022-08-19T10:12:02.580Z,35.83
2022-08-19T10:15:07.098Z,35.72
2022-08-19T10:18:09.804Z,35.58
2022-08-19T10:21:18.680Z,36.01
2022-08-19T10:24:21.457Z,36.07
2022-08-19T10:27:24.214Z,36.51
2022-08-19T10:30:28.829Z,36.17
2022-08-19T10:33:39.213Z,36.48
2022-08-19T10:36:56.378Z,37.19
2022-08-19T10:40:04.511Z,37.62
2022-08-19T10:43:07.431Z,38.37
2022-08-19T10:46:16.436Z,38.62
2022-08-19T10:49:20.166Z,39.82
2022-08-19T10:52:34.938Z,38.76
2022-08-19T10:55:59.630Z,39.22
2022-08-19T10:59:04.274Z,38.80
2022-08-19T11:02:10.813Z,39.62
2022-08-19T11:05:14.430Z,40.38
2022-08-19T11:08:23.074Z,40.92
2022-08-19T11:11:26.544Z,40.12
2022-08-19T11:14:29.088Z,40.06
2022-08-19T11:17:36.907Z,39.86
2022-08-19T11:20:39.287Z,40.66
2022-08-19T11:23:41.375Z,40.62
2022-08-19T11:26:44.468Z,41.53
2022-08-19T11:29:46.508Z,42.27
2022-08-19T11:32:49.659Z,41.39
2022-08-19T11:35:51.843Z,41.11
2022-08-19T11:38:54.743Z,41.27
2022-08-19T11:41:59.177Z,40.27
2022-08-19T11:45:01.788Z,40.95
2022-08-19T11:48:04.499Z,41.69
2022-08-19T11:51:10.349Z,42.46
2022-08-19T11:54:15.120Z,42.49
2022-08-19T11:57:17.970Z,42.17
2022-08-19T12:00:20.344Z,41.27
2022-08-19T12:03:23.196Z,42.63
2022-08-19T12:06:30.014Z,42.33
2022-08-19T12:09:33.220Z,43.33
2022-08-19T12:12:35.571Z,41.97
2022-08-19T12:15:39.285Z,40.50
2022-08-19T12:18:47.223Z,40.20
2022-08-19T12:21:50.332Z,39.97
2022-08-19T12:24:54.197Z,39.63
2022-08-19T12:27:57.596Z,39.35
2022-08-19T12:31:00.451Z,38.96
2022-08-19T12:34:04.863Z,39.18
2022-08-19T12:37:07.467Z,39.56
2022-08-19T12:40:12.675Z,38.82
2022-08-19T12:43:16.568Z,38.39
2022-08-19T12:46:20.425Z,38.99
2022-08-19T12:49:52.514Z,39.38
2022-08-19T12:52:49.043Z,40.11
2022-08-19T12:55:58.717Z,40.63
2022-08-19T12:59:05.715Z,40.96
2022-08-19T13:02:08.758Z,41.08
2022-08-19T13:05:14.150Z,41.00
2022-08-19T13:08:16.466Z,40.49
2022-08-19T13:11:21.512Z,41.48
2022-08-19T13:14:23.968Z,41.94
2022-08-19T13:17:26.382Z,41.51
2022-08-19T13:20:28.693Z,42.08
2022-08-19T13:23:31.520Z,41.54
2022-08-19T13:26:33.907Z,41.22
2022-08-19T13:29:55.043Z,40.89
2022-08-19T13:33:12.366Z,39.99
2022-08-19T13:36:14.737Z,40.48
2022-08-19T13:39:17.305Z,39.99
2022-08-19T13:42:20.202Z,38.90
2022-08-19T13:45:25.330Z,39.04
2022-08-19T13:48:28.112Z,38.64
2022-08-19T13:51:30.288Z,38.19
2022-08-19T13:54:33.414Z,38.72
2022-08-19T13:57:36.240Z,38.92
2022-08-19T14:00:45.538Z,38.55
2022-08-19T14:03:48.324Z,37.64
2022-08-19T14:06:50.461Z,36.43
2022-08-19T14:09:52.844Z,35.20
2022-08-19T14:12:57.262Z,34.54
2022-08-19T14:15:59.650Z,34.08
2022-08-19T14:19:02.006Z,34.01
2022-08-19T14:22:06.246Z,33.81
2022-08-19T14:25:11.405Z,33.93
2022-08-19T14:28:13.856Z,34.00
2022-08-19T14:31:19.822Z,33.98
2022-08-19T14:34:23.112Z,33.76
2022-08-19T14:37:25.286Z,33.53
2022-08-19T14:40:30.460Z,33.29
2022-08-19T14:43:32.740Z,33.37
2022-08-19T14:46:35.280Z,33.48
2022-08-19T14:49:41.193Z,33.20
2022-08-19T14:52:47.370Z,32.71
2022-08-19T14:55:49.612Z,32.32
2022-08-19T14:58:52.861Z,32.13
2022-08-19T15:01:55.067Z,32.09
2022-08-19T15:04:58.093Z,31.86
2022-08-19T15:08:04.616Z,31.71
2022-08-19T15:11:15.854Z,31.48
2022-08-19T15:14:18.012Z,31.57
2022-08-19T15:17:20.445Z,31.64
2022-08-19T15:20:23.461Z,31.71
2022-08-19T15:23:26.314Z,31.80
2022-08-19T15:26:28.998Z,31.85
2022-08-19T15:29:31.489Z,31.74
2022-08-19T15:32:33.529Z,31.57
2022-08-19T15:35:35.927Z,31.33
2022-08-19T15:38:41.111Z,31.20
2022-08-19T15:41:46.558Z,31.12
2022-08-19T15:44:48.746Z,31.01
2022-08-19T15:47:52.854Z,30.98
2022-08-19T15:50:54.969Z,30.96
2022-08-19T15:53:59.610Z,30.93
2022-08-19T15:57:20.370Z,31.00
2022-08-19T16:00:41.177Z,30.96
2022-08-19T16:04:02.055Z,31.00
2022-08-19T16:07:04.491Z,30.80
2022-08-19T16:10:25.889Z,30.73
2022-08-19T16:13:29.689Z,30.81
2022-08-19T16:16:34.169Z,30.95
2022-08-19T16:19:36.366Z,30.91
2022-08-19T16:22:40.146Z,30.67
2022-08-19T16:25:42.297Z,30.67
2022-08-19T16:28:45.279Z,30.58
2022-08-19T16:31:50.925Z,30.39
2022-08-19T16:34:53.650Z,30.35
2022-08-19T16:37:55.960Z,30.33
2022-08-19T16:41:00.502Z,30.19
2022-08-19T16:44:02.957Z,30.13
2022-08-19T16:47:05.497Z,30.03
2022-08-19T16:50:08.009Z,29.97
2022-08-19T16:53:10.399Z,29.83
2022-08-19T16:56:12.781Z,29.69
2022-08-19T16:59:16.590Z,29.53
2022-08-19T17:02:20.432Z,29.48
2022-08-19T17:05:24.677Z,29.37
2022-08-19T17:08:26.856Z,29.24
2022-08-19T17:11:32.798Z,29.32
2022-08-19T17:14:34.905Z,29.27
2022-08-19T17:17:37.361Z,29.15
2022-08-19T17:20:41.402Z,29.06
2022-08-19T17:23:44.234Z,28.99
2022-08-19T17:26:46.540Z,28.84
2022-08-19T17:29:49.194Z,28.75
2022-08-19T17:32:51.833Z,28.62
2022-08-19T17:35:54.248Z,28.70
2022-08-19T17:38:59.064Z,28.54
2022-08-19T17:42:02.785Z,28.41
2022-08-19T17:45:05.997Z,28.25
2022-08-19T17:48:08.865Z,28.17
2022-08-19T17:51:25.590Z,28.03
2022-08-19T17:54:28.661Z,28.12
2022-08-19T17:57:41.178Z,28.16
2022-08-19T18:00:54.001Z,28.13
2022-08-19T18:03:57.058Z,28.14
2022-08-19T18:07:00.998Z,28.07
2022-08-19T18:10:03.640Z,28.01
2022-08-19T18:13:17.417Z,27.92
2022-08-19T18:16:22.104Z,27.93
2022-08-19T18:19:25.586Z,27.95
2022-08-19T18:22:38.776Z,27.66
2022-08-19T18:25:43.713Z,27.22
2022-08-19T18:28:49.687Z,27.08
2022-08-19T18:31:54.021Z,27.05
2022-08-19T18:34:56.649Z,27.11
2022-08-19T18:38:01.107Z,27.16
2022-08-19T18:41:22.700Z,26.88
2022-08-19T18:44:43.453Z,26.58
2022-08-19T18:48:04.468Z,26.26
2022-08-19T18:51:07.462Z,26.02
2022-08-19T18:54:10.403Z,25.60
2022-08-19T18:57:13.596Z,25.04
2022-08-19T19:00:16.644Z,24.05
2022-08-19T19:03:18.769Z,23.25
2022-08-19T19:06:27.570Z,22.83
2022-08-19T19:09:29.868Z,22.50
2022-08-19T19:12:36.443Z,22.41
2022-08-19T19:15:39.477Z,22.30
2022-08-19T19:18:42.541Z,22.41
2022-08-19T19:21:47.570Z,22.45
2022-08-19T19:24:51.276Z,22.51
2022-08-19T19:27:54.879Z,22.63
2022-08-19T19:31:00.556Z,22.80
2022-08-19T19:34:02.623Z,23.03
2022-08-19T19:37:05.279Z,22.91
2022-08-19T19:40:07.791Z,22.33
2022-08-19T19:43:10.334Z,22.17
2022-08-19T19:46:13.847Z,22.31
2022-08-19T19:49:16.535Z,22.04
2022-08-19T19:52:19.494Z,22.00
2022-08-19T19:55:22.345Z,21.94
2022-08-19T19:58:29.298Z,21.86
2022-08-19T20:01:31.830Z,21.89
2022-08-19T20:04:37.335Z,22.17
2022-08-19T20:07:59.245Z,22.34
2022-08-19T20:11:03.902Z,22.26
2022-08-19T20:14:11.623Z,22.02
2022-08-19T20:17:14.046Z,21.59
2022-08-19T20:20:17.939Z,21.54
2022-08-19T20:23:21.910Z,21.35
2022-08-19T20:26:32.245Z,21.15
2022-08-19T20:29:39.628Z,20.92
2022-08-19T20:32:43.788Z,20.77
2022-08-19T20:35:49.483Z,20.65
2022-08-19T20:38:52.091Z,20.57
2022-08-19T20:41:56.356Z,20.43
2022-08-19T20:44:58.761Z,20.35
2022-08-19T20:48:03.113Z,20.33
2022-08-19T20:51:06.727Z,20.26
2022-08-19T20:54:09.161Z,20.20
2022-08-19T20:57:11.290Z,20.11
2022-08-19T21:00:14.914Z,20.15
2022-08-19T21:03:19.260Z,20.16
2022-08-19T21:06:22.114Z,20.16
2022-08-19T21:09:25.342Z,20.31
2022-08-19T21:12:28.138Z,20.40
2022-08-19T21:15:30.703Z,20.31
2022-08-19T21:18:35.362Z,20.36
2022-08-19T21:21:37.549Z,20.38
2022-08-19T21:24:40.053Z,20.33
2022-08-19T21:27:42.311Z,20.31
2022-08-19T21:30:44.731Z,20.33
2022-08-19T21:33:46.896Z,20.28
2022-08-19T21:36:49.314Z,20.30
2022-08-19T21:39:51.504Z,20.31
2022-08-19T21:42:54.293Z,20.30
2022-08-19T21:45:56.423Z,20.29
2022-08-19T21:48:59.111Z,20.39
2022-08-19T21:52:01.931Z,20.35
2022-08-19T21:55:05.389Z,20.35
2022-08-19T21:58:07.532Z,20.34
2022-08-19T22:01:10.048Z,20.28
2022-08-19T22:04:12.496Z,20.28
2022-08-19T22:07:14.970Z,20.30
2022-08-19T22:10:18.325Z,20.38
2022-08-19T22:13:22.007Z,20.40
2022-08-19T22:16:24.623Z,20.39
2022-08-19T22:19:29.235Z,20.47
2022-08-19T22:22:33.102Z,20.46
2022-08-19T22:25:39.617Z,20.44
2022-08-19T22:28:42.776Z,20.52
2022-08-19T22:31:45.094Z,20.57
2022-08-19T22:34:47.510Z,20.59
2022-08-19T22:37:51.125Z,20.69
2022-08-19T22:40:54.242Z,20.69
2022-08-19T22:43:56.491Z,20.61
2022-08-19T22:46:58.935Z,20.60
2022-08-19T22:50:01.181Z,20.40
2022-08-19T22:53:07.178Z,20.46
2022-08-19T22:56:15.060Z,20.43
2022-08-19T22:59:17.956Z,20.41
2022-08-19T23:02:21.496Z,20.42
2022-08-19T23:05:28.956Z,20.38
2022-08-19T23:08:31.476Z,20.37
2022-08-19T23:11:41.550Z,20.36
2022-08-19T23:14:44.449Z,20.40
2022-08-19T23:17:46.867Z,20.42
2022-08-19T23:20:49.178Z,20.39
2022-08-19T23:23:51.672Z,20.37
2022-08-19T23:27:12.431Z,20.36
2022-08-19T23:30:26.739Z,20.38
2022-08-19T23:33:46.503Z,20.38
2022-08-19T23:36:54.145Z,20.41
2022-08-19T23:39:56.329Z,20.41
2022-08-19T23:42:58.850Z,20.45
2022-08-19T23:46:10.570Z,20.44
2022-08-19T23:49:14.914Z,20.45
2022-08-19T23:52:17.030Z,20.50
2022-08-19T23:55:21.689Z,20.48
2022-08-19T23:58:24.377Z,20.51
